This is the latest recevied weather packets stored in our database for station/object Snezka. If no packets are shown the sender has not sent any weather packets the latest 1 day(s).
| Time | Temp. | Humidity | Pressure | Rain* | Wind** | Luminosity | Snow |
|---|---|---|---|---|---|---|---|
| 1778019598 | 7.22° C | 99% | - | - | 8.05 m/s, 150° | - | - |
| 1778016046 | 7.78° C | 87% | - | - | 6.26 m/s, 110° | - | - |
| 1778012441 | 7.78° C | 99% | - | - | 2.24 m/s, 60° | - | - |
| 1778008834 | 7.78° C | 99% | - | - | 5.36 m/s, 100° | - | - |
| 1778005227 | 8.89° C | 93% | - | - | 4.02 m/s, 40° | - | - |
| 1778001626 | 8.89° C | 99% | - | - | 7.15 m/s, 20° | - | - |
| 1777998074 | 10° C | 81% | - | - | 6.26 m/s, 10° | - | - |
| 1777994426 | 11.11° C | 81% | - | - | 7.15 m/s, 20° | - | - |
| 1777990827 | 12.22° C | 76% | - | - | 2.24 m/s, 30° | - | - |
| 1777987200 | 10° C | 87% | - | - | 5.36 m/s, 20° | - | - |
| 1777983599 | 11.11° C | 71% | - | - | 5.36 m/s, 30° | - | - |
| 1777979998 | 10° C | 76% | - | - | 4.02 m/s, 10° | - | - |
| 1777976399 | 11.11° C | 71% | - | - | 2.24 m/s, 10° | - | - |
| 1777972797 | 12.22° C | 66% | - | - | 2.24 m/s, 210° | - | - |
| 1777969199 | 10° C | 57% | - | - | 4.02 m/s, 160° | - | - |
| 1777965599 | 10° C | 57% | - | - | 6.26 m/s, 150° | - | - |
| 1777961999 | 11.11° C | 50% | - | - | 5.36 m/s, 150° | - | - |
| 1777958398 | 10° C | 57% | - | - | 5.36 m/s, 220° | - | - |
| 1777954798 | 11.11° C | 53% | - | - | 8.05 m/s, 220° | - | - |
| 1777951197 | 10° C | 57% | - | - | 10.73 m/s, 200° | - | - |
| 1777947597 | 7.78° C | 70% | - | - | 5.36 m/s, 250° | - | - |
| 1777944000 | 7.78° C | 70% | - | - | 10.73 m/s, 230° | - | - |
| 1777940397 | 8.89° C | 70% | - | - | 8.94 m/s, 200° | - | - |
| 1777936834 | 10° C | 66% | - | - | 6.26 m/s, 170° | - | - |
* Rain since midnight (hover to see other rain measurements)
** Current wind speed in m/s (hover to see current wind gust speed)